This is the latest recevied weather packets stored in our database for station/object N2KI-13. If no packets are shown the sender has not sent any weather packets the latest 10 day(s).
| Time | Temp. | Humidity | Pressure | Rain* | Wind** | Luminosity | Snow |
|---|---|---|---|---|---|---|---|
| 1777506004 | 13.89° C | 67% | 1009.5 hPa | 0 mm | - | - | - |
| 1777505705 | 13.89° C | 65% | 1009.6 hPa | 0 mm | - | - | - |
| 1777502403 | 15.56° C | 62% | 1009.2 hPa | 0 mm | - | - | - |
| 1777502104 | 15.56° C | 62% | 1009.1 hPa | 0 mm | - | - | - |
| 1777500304 | 16.11° C | 60% | 1009.3 hPa | 0 mm | - | - | - |
| 1777497303 | 17.78° C | 56% | 1009.7 hPa | 0 mm | - | - | - |
| 1777497004 | 17.78° C | 57% | 1009.8 hPa | 0 mm | - | - | - |
| 1777495804 | 17.78° C | 56% | 1009.8 hPa | 0 mm | - | - | - |
| 1777494304 | 18.33° C | 55% | 1010 hPa | 0 mm | - | - | - |
| 1777490104 | 18.89° C | 52% | 1011 hPa | 0 mm | - | - | - |
| 1777487404 | 19.44° C | 50% | 1011.4 hPa | 0 mm | - | - | - |
| 1777487104 | 19.44° C | 50% | 1011.4 hPa | 0 mm | - | - | - |
| 1777483204 | 18.33° C | 52% | 1012.3 hPa | 0 mm | - | - | - |
| 1777480805 | 17.78° C | 54% | 1012.9 hPa | 0 mm | - | - | - |
| 1777480504 | 17.78° C | 52% | 1013 hPa | 0 mm | - | - | - |
| 1777480205 | 17.78° C | 53% | 1013 hPa | 0 mm | - | - | - |
| 1777478704 | 18.33° C | 53% | 1013.3 hPa | 0 mm | - | - | - |
| 1777476004 | 17.78° C | 54% | 1013.6 hPa | 0 mm | - | - | - |
| 1777475704 | 17.78° C | 53% | 1013.4 hPa | 0 mm | - | - | - |
| 1777475405 | 17.22° C | 55% | 1013.5 hPa | 0 mm | - | - | - |
| 1777474504 | 17.22° C | 53% | 1013.6 hPa | 0 mm | - | - | - |
| 1777471805 | 16.67° C | 52% | 1013.6 hPa | 0 mm | - | - | - |
| 1777470304 | 15.56° C | 53% | 1013.9 hPa | 0 mm | - | - | - |
| 1777470004 | 15.56° C | 54% | 1014 hPa | 0 mm | - | - | - |
| 1777467004 | 13.89° C | 59% | 1015.1 hPa | 0 mm | - | - | - |
* Rain latest hour (hover to see other rain measurements)
** Current wind speed in m/s (hover to see current wind gust speed)